Terminal Aerodrome Forecast
Issued by NWS

Home | Current Version | Previous Version | Text Only | Print | Product List | Glossary On
Versions: 1 2 3 4 5 6 7 8 9 10 11 12 13 14 15 16 17 18 19 20 21 22 23 24 25 26 27
968
FTUS46 KLOX 241743
TAFLAX
TAF
KLAX 241743Z 2418/2524 15006KT P6SM SKC
     FM241900 19010KT P6SM SKC
     FM242100 24012KT P6SM SKC
     FM250400 25007KT P6SM SKC
     FM250600 VRB04KT P6SM SKC
     FM250800 13006KT P6SM BKN008
     FM251200 13008KT P6SM OVC012
     FM251630 16006KT P6SM SCT015
     FM251900 25012KT P6SM SKC=

USA.gov is the U.S. government's official web portal to all federal, state and local government web resources and services.